Time;durP1;ratioP1;P1;durP2;ratioP2;P2;SDS_P1;SDS_P2;PMS_P1;PMS_P2;Temp;Humidity;BMP_temperature;BMP_pressure;BME280_temperature;BME280_humidity;BME280_pressure;Samples;Min_cycle;Max_cycle;Signal;HPM_P1;HPM_P2
2023/10/07 00:02:12;;;;;;;23.52;5.20;;;17.10;99.90;;;;;;5042767;28;20018;-79
2023/10/07 00:04:39;;;;;;;23.75;6.82;;;17.10;99.90;;;;;;5025740;28;20085;-81
2023/10/07 00:07:10;;;;;;;22.77;5.70;;;17.00;99.90;;;;;;5025459;28;20093;-79
2023/10/07 00:09:36;;;;;;;21.17;5.70;;;17.00;99.90;;;;;;5025159;28;20060;-74
2023/10/07 00:12:02;;;;;;;22.98;5.68;;;17.10;99.90;;;;;;5043558;28;20085;-75
2023/10/07 00:14:29;;;;;;;12.48;4.95;;;17.00;99.90;;;;;;5025653;28;20052;-74
2023/10/07 00:16:55;;;;;;;21.92;4.93;;;17.00;99.90;;;;;;5025051;28;20072;-71
2023/10/07 00:19:21;;;;;;;18.05;5.45;;;17.00;99.90;;;;;;5041821;28;20030;-79
2023/10/07 00:21:59;;;;;;;18.70;5.35;;;17.10;99.90;;;;;;5042589;28;20073;-77
2023/10/07 00:24:26;;;;;;;23.42;6.40;;;17.00;99.90;;;;;;5042324;28;20025;-78
2023/10/07 00:26:56;;;;;;;20.85;5.88;;;17.00;99.90;;;;;;5042501;28;20024;-73
2023/10/07 00:29:23;;;;;;;19.35;5.38;;;17.00;99.90;;;;;;5041674;28;20022;-73
2023/10/07 00:31:52;;;;;;;29.75;6.53;;;17.00;99.90;;;;;;5024748;28;20385;-73
2023/10/07 00:34:26;;;;;;;18.25;5.60;;;17.00;99.90;;;;;;5042355;28;20406;-76
2023/10/07 00:36:53;;;;;;;26.15;5.55;;;16.90;99.90;;;;;;5042012;28;20049;-74
2023/10/07 00:39:21;;;;;;;21.52;5.60;;;17.00;99.90;;;;;;5024504;28;20021;-77
2023/10/07 00:41:50;;;;;;;17.95;5.45;;;17.00;99.90;;;;;;5041343;28;20405;-68
2023/10/07 00:44:23;;;;;;;18.42;5.75;;;16.90;99.90;;;;;;5023306;28;20037;-78
2023/10/07 00:52:29;;;;;;;20.95;6.15;;;17.00;99.90;;;;;;5022163;28;20034;-72
2023/10/07 00:55:38;;;;;;;25.05;5.95;;;17.00;99.90;;;;;;5019542;28;20445;-75
2023/10/07 00:57:53;;;;;;;20.60;5.80;;;17.00;99.90;;;;;;5013747;28;20038;-73
2023/10/07 01:02:45;;;;;;;18.70;5.50;;;16.90;99.90;;;;;;5021975;28;20086;-73
2023/10/07 01:05:32;;;;;;;21.45;5.90;;;16.90;99.90;;;;;;5020695;28;20057;-75
2023/10/07 01:07:58;;;;;;;24.35;6.25;;;16.90;99.90;;;;;;5021876;28;20045;-79
2023/10/07 01:10:31;;;;;;;16.55;5.18;;;16.90;99.90;;;;;;5020611;28;20018;-72
2023/10/07 01:13:01;;;;;;;25.42;5.63;;;16.90;99.90;;;;;;5020690;28;20065;-78
2023/10/07 01:15:29;;;;;;;21.10;5.97;;;16.90;99.90;;;;;;5020259;28;20097;-77
2023/10/07 01:18:05;;;;;;;22.48;5.70;;;16.90;99.90;;;;;;5021086;28;20018;-77
2023/10/07 01:20:35;;;;;;;24.50;6.35;;;16.90;99.90;;;;;;5020588;28;20057;-69
2023/10/07 01:23:04;;;;;;;19.60;5.60;;;16.90;99.90;;;;;;5022027;28;20033;-81
2023/10/07 01:25:31;;;;;;;18.77;5.28;;;16.90;99.90;;;;;;5020453;28;20383;-71
2023/10/07 01:28:00;;;;;;;22.20;6.20;;;16.90;99.90;;;;;;5021407;28;20506;-72
2023/10/07 01:30:29;;;;;;;24.70;6.20;;;16.90;99.90;;;;;;5020482;28;20032;-73
2023/10/07 01:33:02;;;;;;;23.08;7.15;;;16.80;99.90;;;;;;5020986;28;20026;-73
2023/10/07 01:35:32;;;;;;;24.73;7.03;;;16.80;99.90;;;;;;5021467;28;20030;-73
2023/10/07 01:38:07;;;;;;;19.00;7.10;;;16.80;99.90;;;;;;5021240;28;20022;-70
2023/10/07 01:43:18;;;;;;;;;;;16.70;99.90;;;;;;5021262;28;20034;-74
2023/10/07 01:45:47;;;;;;;19.88;7.10;;;16.60;99.90;;;;;;5020006;28;20019;-74
2023/10/07 01:48:13;;;;;;;25.70;7.28;;;16.60;99.90;;;;;;5036330;28;20041;-72
2023/10/07 01:50:40;;;;;;;20.95;7.00;;;16.50;99.90;;;;;;5040060;28;20061;-72
2023/10/07 01:53:07;;;;;;;22.77;7.60;;;16.50;99.90;;;;;;5022410;28;20486;-72
2023/10/07 01:55:36;;;;;;;25.45;8.43;;;16.50;99.90;;;;;;5040782;28;20045;-73
2023/10/07 01:58:02;;;;;;;22.88;8.60;;;16.50;99.90;;;;;;5040895;28;20075;-75
2023/10/07 02:00:44;;;;;;;25.80;9.48;;;16.40;99.90;;;;;;5041132;28;20040;-74
2023/10/07 02:03:16;;;;;;;26.95;9.52;;;16.40;99.90;;;;;;5040685;28;20085;-72
2023/10/07 02:05:47;;;;;;;25.02;8.70;;;16.40;99.90;;;;;;5022774;28;20022;-72
2023/10/07 02:08:21;;;;;;;28.00;9.90;;;16.30;99.90;;;;;;5040963;28;20026;-71
2023/10/07 02:10:58;;;;;;;31.40;10.38;;;16.30;99.90;;;;;;5040000;28;20037;-72
2023/10/07 02:13:27;;;;;;;25.80;10.35;;;16.20;99.90;;;;;;5022697;28;20069;-72
2023/10/07 02:15:54;;;;;;;30.80;10.88;;;16.20;99.90;;;;;;5040385;28;20033;-72
2023/10/07 02:18:20;;;;;;;24.45;10.38;;;16.20;99.90;;;;;;5040699;28;20026;-71
2023/10/07 02:20:50;;;;;;;28.67;10.90;;;16.10;99.90;;;;;;5039737;28;20024;-72
2023/10/07 02:23:37;;;;;;;27.15;11.27;;;16.10;99.90;;;;;;5040468;28;20018;-72
2023/10/07 02:26:05;;;;;;;29.80;12.35;;;16.10;99.90;;;;;;5040030;28;20047;-74
2023/10/07 02:28:33;;;;;;;32.25;12.82;;;16.10;99.90;;;;;;5040224;28;20060;-73
2023/10/07 02:31:08;;;;;;;36.10;13.07;;;16.00;99.90;;;;;;5022567;28;20044;-72
2023/10/07 02:33:57;;;;;;;26.52;12.05;;;16.00;99.90;;;;;;5022413;28;20026;-73
2023/10/07 02:41:46;;;;;;;25.27;12.88;;;16.00;99.90;;;;;;5040248;28;20455;-72
2023/10/07 02:44:16;;;;;;;32.92;12.75;;;15.90;99.90;;;;;;5040340;28;20040;-73
2023/10/07 02:46:42;;;;;;;31.38;14.20;;;15.90;99.90;;;;;;5040383;28;20041;-73
2023/10/07 02:49:10;;;;;;;35.92;13.15;;;15.90;99.90;;;;;;5021983;28;20021;-73
2023/10/07 02:51:45;;;;;;;35.13;12.95;;;15.90;99.90;;;;;;5022926;28;20720;-76
2023/10/07 02:54:21;;;;;;;28.60;13.45;;;15.90;99.90;;;;;;5022640;28;20493;-76
2023/10/07 02:57:07;;;;;;;37.85;14.23;;;15.90;99.90;;;;;;5040071;28;20486;-72
2023/10/07 02:59:36;;;;;;;30.45;13.45;;;15.90;99.90;;;;;;5022953;28;20025;-73
2023/10/07 03:02:14;;;;;;;37.75;14.48;;;15.90;99.90;;;;;;5041491;28;20029;-77
2023/10/07 03:04:43;;;;;;;31.13;13.20;;;15.90;99.90;;;;;;5034046;28;20021;-73
2023/10/07 03:07:15;;;;;;;31.35;13.13;;;15.80;99.90;;;;;;5026507;28;20086;-78
2023/10/07 03:09:52;;;;;;;34.72;14.30;;;15.80;99.90;;;;;;5043995;28;20032;-74
2023/10/07 03:12:27;;;;;;;25.42;12.98;;;15.80;99.90;;;;;;5033948;28;20022;-75
2023/10/07 03:14:57;;;;;;;26.80;12.07;;;15.80;99.90;;;;;;5025195;28;20041;-75
2023/10/07 03:17:32;;;;;;;35.20;12.40;;;15.80;99.90;;;;;;5025209;28;20021;-74
2023/10/07 03:20:23;;;;;;;34.22;13.25;;;15.80;99.90;;;;;;5043980;28;20017;-74
2023/10/07 03:23:11;;;;;;;26.52;12.75;;;15.80;99.90;;;;;;5043248;28;20017;-79
2023/10/07 03:25:34;;;;;;;27.95;12.07;;;15.80;99.90;;;;;;5043500;28;20604;-76
2023/10/07 03:28:16;;;;;;;24.17;11.60;;;15.80;99.90;;;;;;5043159;28;20029;-73
2023/10/07 03:30:46;;;;;;;33.38;12.90;;;15.80;99.90;;;;;;5025057;28;20075;-75
2023/10/07 03:33:15;;;;;;;22.38;11.20;;;15.70;99.90;;;;;;5025868;28;20913;-77
2023/10/07 03:36:09;;;;;;;23.65;11.38;;;15.80;99.90;;;;;;5025052;28;20036;-74
2023/10/07 03:38:30;;;;;;;27.65;10.77;;;15.80;99.90;;;;;;5043048;28;20030;-74
2023/10/07 03:40:58;;;;;;;23.45;11.05;;;15.80;99.90;;;;;;5024741;28;20545;-71
2023/10/07 03:43:26;;;;;;;23.73;11.48;;;15.70;99.90;;;;;;5043190;28;20760;-74
2023/10/07 03:45:55;;;;;;;28.90;11.63;;;15.80;99.90;;;;;;5024484;28;20056;-74
2023/10/07 03:48:24;;;;;;;29.70;12.27;;;15.80;99.90;;;;;;5042448;28;20091;-71
2023/10/07 03:50:59;;;;;;;28.58;13.02;;;15.80;99.90;;;;;;5042626;28;20037;-73
2023/10/07 03:53:31;;;;;;;27.08;13.48;;;15.80;99.90;;;;;;5042795;28;20014;-73
2023/10/07 03:56:01;;;;;;;31.08;14.80;;;15.80;99.90;;;;;;5024710;28;20041;-72
2023/10/07 03:58:28;;;;;;;34.90;15.48;;;15.80;99.90;;;;;;5042759;28;20028;-72
2023/10/07 04:00:55;;;;;;;33.22;16.55;;;15.80;99.90;;;;;;5042751;28;20022;-74
2023/10/07 04:03:23;;;;;;;35.15;16.00;;;15.80;99.90;;;;;;5024810;28;20052;-71
2023/10/07 04:05:50;;;;;;;41.80;16.15;;;15.90;99.90;;;;;;5042018;28;20108;-74
2023/10/07 04:08:18;;;;;;;39.53;16.70;;;15.90;99.90;;;;;;5024964;28;20053;-71
2023/10/07 04:10:45;;;;;;;34.45;16.15;;;15.90;99.90;;;;;;5042560;28;20021;-72
2023/10/07 04:13:21;;;;;;;41.13;17.27;;;15.90;99.90;;;;;;5023315;28;20025;-75
2023/10/07 04:15:52;;;;;;;44.95;17.60;;;15.90;99.90;;;;;;5023934;28;20515;-73
2023/10/07 04:18:34;;;;;;;40.75;18.65;;;15.90;99.90;;;;;;5040804;28;20025;-74
2023/10/07 04:21:01;;;;;;;44.20;18.35;;;15.90;99.90;;;;;;5042187;28;20022;-71
2023/10/07 04:23:27;;;;;;;43.40;18.35;;;15.90;99.90;;;;;;5032080;28;20033;-72
2023/10/07 04:26:04;;;;;;;44.53;18.15;;;15.90;99.90;;;;;;5023731;28;20026;-75
2023/10/07 04:28:31;;;;;;;37.58;16.40;;;15.90;99.90;;;;;;5042496;28;20021;-75
2023/10/07 04:30:57;;;;;;;50.58;18.50;;;15.90;99.90;;;;;;5041759;28;20085;-74
2023/10/07 04:33:32;;;;;;;44.13;17.73;;;15.90;99.90;;;;;;5042310;28;20025;-72
2023/10/07 04:36:01;;;;;;;38.63;17.02;;;15.90;99.90;;;;;;5024343;28;20044;-74
2023/10/07 04:43:50;;;;;;;47.35;19.77;;;15.90;99.90;;;;;;5041905;28;20033;-71
2023/10/07 04:46:23;;;;;;;55.80;20.70;;;16.00;99.90;;;;;;5042183;28;20025;-70
2023/10/07 04:48:56;;;;;;;45.53;20.08;;;15.90;99.90;;;;;;5041325;28;20030;-72
2023/10/07 04:54:02;;;;;;;46.80;20.77;;;16.00;99.90;;;;;;5042088;28;20025;-74
2023/10/07 04:56:32;;;;;;;46.70;19.13;;;16.00;99.90;;;;;;5041819;28;20052;-73
2023/10/07 04:59:00;;;;;;;68.20;20.98;;;16.00;99.90;;;;;;5041919;28;20018;-73
2023/10/07 05:01:36;;;;;;;58.58;20.20;;;16.00;99.90;;;;;;5041901;28;20060;-73
2023/10/07 05:04:09;;;;;;;53.28;20.63;;;16.00;99.90;;;;;;5042296;28;20013;-75
2023/10/07 05:06:38;;;;;;;49.55;19.58;;;15.90;99.90;;;;;;5032885;28;20037;-72
2023/10/07 05:09:09;;;;;;;57.95;19.70;;;16.00;99.90;;;;;;5041867;28;20040;-75
2023/10/07 05:11:40;;;;;;;48.22;19.25;;;16.00;99.90;;;;;;5032345;28;20017;-72
2023/10/07 05:14:10;;;;;;;65.68;21.23;;;16.00;99.90;;;;;;5041339;28;20029;-71
2023/10/07 05:16:37;;;;;;;56.42;20.52;;;16.00;99.90;;;;;;5041594;28;20036;-71
2023/10/07 05:19:04;;;;;;;56.63;21.05;;;16.00;99.90;;;;;;5040858;28;20021;-74
2023/10/07 05:21:31;;;;;;;52.10;19.52;;;16.00;99.90;;;;;;5040759;28;20036;-72
2023/10/07 05:24:02;;;;;;;51.60;20.40;;;16.00;99.90;;;;;;5040437;28;20115;-75
2023/10/07 05:26:30;;;;;;;59.00;20.05;;;16.00;99.90;;;;;;5040489;28;20029;-72
2023/10/07 05:29:02;;;;;;;51.35;19.58;;;16.00;99.90;;;;;;5021523;28;20128;-71
2023/10/07 05:31:30;;;;;;;51.35;20.45;;;16.00;99.90;;;;;;5040680;28;20034;-72
2023/10/07 05:34:00;;;;;;;46.35;19.55;;;16.00;99.90;;;;;;5022866;28;20501;-71
2023/10/07 05:36:32;;;;;;;53.25;19.30;;;16.00;99.90;;;;;;5038543;28;20474;-72
2023/10/07 05:39:00;;;;;;;50.60;20.67;;;16.00;99.90;;;;;;5039255;28;20041;-73
2023/10/07 05:41:28;;;;;;;54.28;19.92;;;16.00;99.90;;;;;;5040377;28;20029;-70
2023/10/07 05:43:54;;;;;;;51.22;19.95;;;16.00;99.90;;;;;;5039696;28;20024;-70
2023/10/07 05:46:20;;;;;;;49.60;19.50;;;16.00;99.90;;;;;;5040646;28;20081;-71
2023/10/07 05:48:47;;;;;;;57.65;20.38;;;16.00;99.90;;;;;;5040025;28;20104;-73
2023/10/07 05:51:13;;;;;;;45.08;17.90;;;16.00;99.90;;;;;;5040183;28;20497;-72
2023/10/07 05:53:42;;;;;;;56.90;19.38;;;16.00;99.90;;;;;;5040111;28;20081;-70
2023/10/07 05:56:12;;;;;;;56.58;18.05;;;16.00;99.90;;;;;;5039442;28;20057;-72
2023/10/07 05:58:39;;;;;;;53.65;19.52;;;16.00;99.90;;;;;;5039380;28;20028;-70
2023/10/07 06:01:06;;;;;;;50.90;19.92;;;16.00;99.90;;;;;;5040620;28;20099;-73
2023/10/07 06:03:32;;;;;;;56.67;20.67;;;15.90;99.90;;;;;;5040043;28;20081;-72
2023/10/07 06:05:58;;;;;;;57.15;19.45;;;16.00;99.90;;;;;;5040115;28;20405;-68
2023/10/07 06:08:28;;;;;;;50.72;20.25;;;16.00;99.90;;;;;;5040733;28;20033;-71
2023/10/07 06:10:56;;;;;;;47.47;18.52;;;15.90;99.90;;;;;;5040443;28;20425;-70
2023/10/07 06:13:22;;;;;;;48.50;17.67;;;15.90;99.90;;;;;;5040457;28;20033;-69
2023/10/07 06:15:49;;;;;;;44.67;18.65;;;15.90;99.90;;;;;;5039650;28;20581;-69
2023/10/07 06:18:18;;;;;;;49.42;20.38;;;15.90;99.90;;;;;;5039970;28;20124;-69
2023/10/07 06:20:51;;;;;;;55.75;20.23;;;15.90;99.90;;;;;;5040281;28;20021;-70
2023/10/07 06:23:24;;;;;;;47.85;20.17;;;15.90;99.90;;;;;;5022014;28;20439;-74
2023/10/07 06:25:50;;;;;;;52.13;20.67;;;15.90;99.90;;;;;;5022051;28;20079;-70
2023/10/07 06:31:13;;;;;;;56.25;21.00;;;15.80;99.90;;;;;;5039494;28;20045;-71
2023/10/07 06:33:47;;;;;;;;;;;15.90;99.90;;;;;;5040577;28;20497;-72
2023/10/07 06:36:14;;;;;;;50.80;19.70;;;15.90;99.90;;;;;;5040994;28;19913;-71
2023/10/07 06:38:45;;;;;;;51.75;18.88;;;15.90;99.90;;;;;;5041774;28;20021;-73
2023/10/07 06:41:11;;;;;;;55.03;19.90;;;15.80;99.90;;;;;;5025657;28;20045;-70
2023/10/07 06:43:42;;;;;;;49.58;21.65;;;15.90;99.90;;;;;;5044057;28;20044;-72
2023/10/07 06:46:11;;;;;;;61.70;21.35;;;15.80;99.90;;;;;;5043983;28;20026;-70
2023/10/07 06:48:37;;;;;;;52.10;20.95;;;15.80;99.90;;;;;;5043125;28;20107;-71
2023/10/07 06:51:03;;;;;;;58.10;20.27;;;15.80;99.90;;;;;;5043820;28;20025;-72
2023/10/07 06:53:30;;;;;;;55.33;21.38;;;15.90;99.90;;;;;;5043885;28;20100;-74
2023/10/07 06:55:58;;;;;;;52.53;20.63;;;15.90;99.90;;;;;;5025799;28;20068;-71
2023/10/07 06:58:25;;;;;;;56.92;20.98;;;15.90;99.90;;;;;;5041893;28;20021;-69
2023/10/07 07:00:56;;;;;;;53.28;20.73;;;15.90;99.90;;;;;;5043378;28;20014;-74
2023/10/07 07:03:25;;;;;;;53.22;20.38;;;15.90;99.90;;;;;;5044026;28;20053;-70
2023/10/07 07:05:52;;;;;;;47.45;17.25;;;15.90;99.90;;;;;;5043043;28;20032;-71
2023/10/07 07:08:22;;;;;;;48.67;19.02;;;15.90;99.90;;;;;;5033398;28;20090;-72
2023/10/07 07:10:50;;;;;;;46.60;18.30;;;15.90;99.90;;;;;;5042878;28;20076;-72
2023/10/07 07:13:22;;;;;;;44.17;19.40;;;15.90;99.90;;;;;;5025542;28;20029;-73
2023/10/07 07:16:06;;;;;;;50.05;18.73;;;15.90;99.90;;;;;;5043725;28;20044;-75
2023/10/07 07:18:32;;;;;;;48.88;19.23;;;15.90;99.90;;;;;;5043527;28;20036;-71
2023/10/07 07:21:00;;;;;;;39.83;19.60;;;15.90;99.90;;;;;;5025103;28;20037;-71
2023/10/07 07:23:34;;;;;;;45.97;19.00;;;15.90;99.90;;;;;;5025316;28;20063;-75
2023/10/07 07:26:09;;;;;;;42.78;18.23;;;15.90;99.90;;;;;;5043163;28;20032;-73
2023/10/07 07:28:36;;;;;;;48.50;21.13;;;15.90;99.90;;;;;;5043432;28;20118;-74
2023/10/07 07:31:10;;;;;;;46.63;18.98;;;15.90;99.90;;;;;;5042487;28;20037;-71
2023/10/07 07:33:36;;;;;;;;;;;15.90;99.90;;;;;;5043495;28;20024;-76
2023/10/07 07:38:47;;;;;;;50.53;19.60;;;15.90;99.90;;;;;;5043195;28;20032;-71
2023/10/07 07:41:34;;;;;;;46.55;20.70;;;16.00;99.90;;;;;;5040720;28;20489;-71
2023/10/07 07:44:00;;;;;;;63.88;22.65;;;16.00;99.90;;;;;;5042551;28;20075;-71
2023/10/07 07:46:29;;;;;;;60.33;22.05;;;16.00;99.90;;;;;;5042115;28;20052;-71
2023/10/07 07:48:55;;;;;;;53.10;20.70;;;16.00;99.90;;;;;;5040882;28;20075;-70
2023/10/07 07:51:25;;;;;;;55.25;22.73;;;16.00;99.90;;;;;;5024535;28;20431;-71
2023/10/07 07:53:54;;;;;;;59.60;21.60;;;16.00;99.90;;;;;;5040619;28;20030;-77
2023/10/07 07:56:20;;;;;;;51.83;20.92;;;16.00;99.90;;;;;;5041267;28;20042;-73
2023/10/07 07:58:47;;;;;;;48.88;18.95;;;16.00;99.90;;;;;;5042746;28;20022;-71
2023/10/07 08:01:18;;;;;;;42.58;20.27;;;16.00;99.90;;;;;;5041743;28;20029;-71
2023/10/07 08:03:43;;;;;;;41.25;19.67;;;16.00;99.90;;;;;;5024959;28;20084;-72
2023/10/07 08:06:19;;;;;;;40.03;18.42;;;16.00;99.90;;;;;;5026637;28;20065;-72
2023/10/07 08:08:53;;;;;;;41.95;20.05;;;16.00;99.90;;;;;;5024597;28;20093;-70
2023/10/07 08:11:19;;;;;;;51.88;20.83;;;16.00;99.90;;;;;;5043233;28;20107;-72
2023/10/07 08:13:45;;;;;;;43.22;20.75;;;16.00;99.90;;;;;;5025696;28;20034;-71
2023/10/07 08:16:25;;;;;;;45.20;20.63;;;16.10;99.90;;;;;;5042542;28;20040;-72
2023/10/07 08:19:10;;;;;;;38.30;19.75;;;16.00;99.90;;;;;;5023992;28;20072;-72
2023/10/07 08:21:39;;;;;;;52.55;19.08;;;16.00;99.90;;;;;;5042832;28;20021;-73
2023/10/07 08:24:06;;;;;;;38.60;16.30;;;16.10;99.90;;;;;;5042656;28;20034;-70
2023/10/07 08:26:34;;;;;;;45.25;17.77;;;16.10;99.90;;;;;;5043179;28;20021;-71
2023/10/07 08:29:00;;;;;;;51.75;19.10;;;16.10;99.90;;;;;;5024330;28;20535;-69
2023/10/07 08:31:44;;;;;;;42.53;18.80;;;16.10;99.90;;;;;;5042756;28;20025;-72
2023/10/07 08:34:10;;;;;;;39.03;17.75;;;16.10;99.90;;;;;;5023180;28;20076;-70
2023/10/07 08:36:37;;;;;;;43.55;18.75;;;16.10;99.90;;;;;;5041703;28;20057;-71
2023/10/07 08:39:10;;;;;;;41.03;18.77;;;16.10;99.90;;;;;;5041877;28;20035;-71
2023/10/07 08:41:40;;;;;;;46.42;18.40;;;16.10;99.90;;;;;;5043140;28;20026;-72
2023/10/07 08:44:17;;;;;;;36.85;18.38;;;16.10;99.90;;;;;;5041574;28;20044;-71
2023/10/07 08:46:54;;;;;;;45.63;18.88;;;16.10;99.90;;;;;;5042068;28;20538;-71
2023/10/07 08:49:27;;;;;;;37.03;18.13;;;16.20;99.90;;;;;;5022063;28;20032;-72
2023/10/07 08:51:56;;;;;;;44.80;20.20;;;16.10;99.90;;;;;;5024274;28;20048;-71
2023/10/07 08:54:26;;;;;;;47.05;21.30;;;16.20;99.90;;;;;;5039915;28;20053;-71
2023/10/07 08:56:58;;;;;;;34.58;16.42;;;16.20;99.90;;;;;;5041955;28;21198;-71
2023/10/07 08:59:26;;;;;;;40.92;18.52;;;16.20;99.90;;;;;;5040997;28;20032;-76
2023/10/07 09:01:57;;;;;;;35.95;17.35;;;16.20;99.90;;;;;;5040406;28;20044;-72
2023/10/07 09:04:32;;;;;;;28.92;16.63;;;16.20;99.90;;;;;;5040868;28;20028;-71
2023/10/07 09:07:08;;;;;;;38.25;18.35;;;16.20;99.90;;;;;;5042200;28;20113;-71
2023/10/07 09:09:38;;;;;;;36.10;18.00;;;16.20;99.90;;;;;;5042290;28;21237;-72
2023/10/07 09:12:29;;;;;;;31.42;16.33;;;16.20;99.90;;;;;;5031688;28;20037;-73
2023/10/07 09:14:57;;;;;;;35.03;17.55;;;16.20;99.90;;;;;;5040837;28;20025;-70
2023/10/07 09:17:27;;;;;;;33.00;15.38;;;16.20;99.90;;;;;;5031048;28;20022;-70
2023/10/07 09:19:53;;;;;;;31.48;17.10;;;16.20;99.90;;;;;;5041228;28;20083;-71
2023/10/07 09:22:33;;;;;;;37.08;17.50;;;16.20;99.90;;;;;;5024309;28;20057;-69
2023/10/07 09:25:17;;;;;;;34.70;16.63;;;16.20;99.90;;;;;;5041696;28;20120;-71
2023/10/07 09:27:54;;;;;;;37.42;17.73;;;16.20;99.90;;;;;;5023793;28;20022;-69
2023/10/07 09:31:05;;;;;;;32.97;16.35;;;16.20;99.90;;;;;;5041539;28;20036;-70
2023/10/07 09:33:19;;;;;;;44.45;20.15;;;16.20;99.90;;;;;;5038029;28;20037;-70
2023/10/07 09:35:47;;;;;;;41.45;19.50;;;16.20;99.90;;;;;;5041364;28;20098;-70
2023/10/07 09:38:27;;;;;;;41.30;18.67;;;16.20;99.90;;;;;;5040925;28;20021;-70
2023/10/07 09:43:33;;;;;;;41.90;18.50;;;16.20;99.90;;;;;;5041212;28;20026;-70
2023/10/07 09:45:58;;;;;;;37.42;17.65;;;16.20;99.90;;;;;;5040486;28;20028;-71
2023/10/07 09:48:30;;;;;;;38.47;15.82;;;16.20;99.90;;;;;;5041372;28;20080;-71
2023/10/07 09:50:58;;;;;;;39.63;17.25;;;16.30;99.90;;;;;;5041469;28;20044;-70
2023/10/07 09:53:43;;;;;;;40.40;17.48;;;16.30;99.90;;;;;;5041297;28;20029;-74
2023/10/07 09:56:33;;;;;;;39.13;17.00;;;16.20;99.90;;;;;;5041383;28;20052;-72
2023/10/07 09:59:25;;;;;;;50.17;16.80;;;16.30;99.90;;;;;;5040616;28;20061;-76
2023/10/07 10:02:32;;;;;;;35.13;16.55;;;16.30;99.90;;;;;;5023438;28;20063;-72
2023/10/07 10:05:35;;;;;;;38.03;16.88;;;16.30;99.90;;;;;;5040374;28;20030;-72
2023/10/07 10:08:27;;;;;;;32.78;15.02;;;16.30;99.90;;;;;;5029617;28;20068;-73
2023/10/07 10:10:58;;;;;;;38.35;15.05;;;16.30;99.90;;;;;;5042340;28;20061;-71
2023/10/07 10:13:29;;;;;;;35.25;15.02;;;16.40;99.90;;;;;;5024937;28;20037;-76
2023/10/07 10:16:00;;;;;;;41.17;16.40;;;16.30;99.90;;;;;;5044806;28;20033;-74
2023/10/07 10:18:40;;;;;;;37.58;16.58;;;16.40;99.90;;;;;;5045228;28;20559;-75
2023/10/07 10:21:15;;;;;;;36.50;14.38;;;16.40;99.90;;;;;;5026707;28;20574;-79
2023/10/07 10:23:44;;;;;;;25.40;13.77;;;16.40;99.90;;;;;;5035904;28;20033;-73
2023/10/07 10:26:14;;;;;;;33.72;13.65;;;16.40;99.90;;;;;;5027309;28;20056;-74
2023/10/07 10:29:07;;;;;;;40.20;13.50;;;16.40;99.90;;;;;;5045069;28;21489;-72
2023/10/07 10:31:40;;;;;;;27.13;11.82;;;16.40;99.90;;;;;;5045243;28;20026;-73
2023/10/07 10:34:08;;;;;;;35.55;12.65;;;16.40;99.90;;;;;;5044721;28;20048;-74
2023/10/07 10:36:40;;;;;;;28.20;11.75;;;16.40;99.90;;;;;;5044849;28;20038;-76
2023/10/07 10:39:25;;;;;;;29.23;12.43;;;16.40;99.90;;;;;;5035075;28;20028;-73
2023/10/07 10:41:54;;;;;;;28.80;10.13;;;16.40;99.90;;;;;;5044295;28;20056;-78
2023/10/07 10:44:21;;;;;;;32.28;11.05;;;16.40;99.90;;;;;;5044438;28;20021;-77
2023/10/07 10:46:51;;;;;;;24.88;9.95;;;16.40;99.90;;;;;;5025509;28;20049;-74
2023/10/07 10:49:20;;;;;;;26.85;10.10;;;16.40;99.90;;;;;;5044248;28;20036;-75
2023/10/07 10:51:54;;;;;;;31.67;9.70;;;16.50;99.90;;;;;;5044759;28;20036;-77
2023/10/07 10:54:22;;;;;;;32.45;9.13;;;16.50;99.90;;;;;;5026627;28;20023;-76
2023/10/07 10:56:58;;;;;;;23.70;8.80;;;16.50;99.90;;;;;;5025733;28;20037;-73
2023/10/07 10:59:42;;;;;;;27.23;8.10;;;16.50;99.90;;;;;;5026229;28;20033;-76
2023/10/07 11:02:21;;;;;;;21.40;7.80;;;16.50;99.90;;;;;;5043618;28;20025;-76
2023/10/07 11:04:53;;;;;;;24.13;7.72;;;16.50;99.90;;;;;;5026570;28;20034;-74
2023/10/07 11:07:19;;;;;;;15.02;6.45;;;16.50;99.90;;;;;;5026500;28;20026;-75
2023/10/07 11:09:51;;;;;;;25.98;7.10;;;16.50;99.90;;;;;;5043554;28;20051;-77
2023/10/07 11:12:17;;;;;;;31.17;7.43;;;16.60;99.90;;;;;;5042944;28;20171;-74
2023/10/07 11:14:47;;;;;;;18.25;6.57;;;16.50;99.90;;;;;;5042891;28;20022;-75
2023/10/07 11:17:15;;;;;;;20.67;6.45;;;16.60;99.90;;;;;;5043346;28;20049;-74
2023/10/07 11:19:51;;;;;;;20.63;6.38;;;16.60;99.90;;;;;;5026191;28;20029;-80
2023/10/07 11:22:21;;;;;;;19.33;6.60;;;16.60;99.90;;;;;;5025056;28;20686;-72
2023/10/07 11:24:50;;;;;;;24.90;6.28;;;16.60;99.90;;;;;;5043390;28;20021;-74
2023/10/07 11:27:17;;;;;;;22.05;6.10;;;16.60;99.90;;;;;;5026010;28;20036;-75
2023/10/07 11:29:43;;;;;;;23.13;7.07;;;16.60;99.90;;;;;;5043485;28;20040;-75
2023/10/07 11:32:12;;;;;;;21.58;6.30;;;16.60;99.90;;;;;;5025308;28;20041;-77
2023/10/07 11:34:45;;;;;;;14.38;5.70;;;16.60;99.90;;;;;;5025980;28;20029;-75
2023/10/07 11:37:16;;;;;;;21.60;6.53;;;16.60;99.90;;;;;;5025145;28;20041;-78
2023/10/07 11:39:45;;;;;;;18.10;5.72;;;16.60;99.90;;;;;;5042389;28;20014;-72
2023/10/07 11:42:16;;;;;;;16.83;5.70;;;16.60;99.90;;;;;;5042448;28;20021;-72
2023/10/07 11:44:47;;;;;;;20.98;6.88;;;16.60;99.90;;;;;;5025457;28;20017;-74
2023/10/07 11:47:16;;;;;;;21.33;6.22;;;16.60;99.90;;;;;;5042374;28;20041;-74
2023/10/07 11:49:46;;;;;;;25.83;6.95;;;16.60;99.90;;;;;;5024733;28;20022;-75
2023/10/07 11:52:12;;;;;;;21.58;6.38;;;16.60;99.90;;;;;;5043407;28;20130;-80
2023/10/07 11:54:37;;;;;;;24.25;6.50;;;16.60;99.90;;;;;;5023679;28;20048;-75
2023/10/07 11:57:05;;;;;;;19.85;6.60;;;16.60;99.90;;;;;;5024978;28;20215;-75
2023/10/07 11:59:34;;;;;;;22.23;6.35;;;16.60;99.90;;;;;;5026115;28;20047;-74
2023/10/07 12:02:09;;;;;;;24.00;6.40;;;16.60;99.90;;;;;;5025222;28;20432;-76
2023/10/07 12:04:40;;;;;;;22.80;5.57;;;16.60;99.90;;;;;;5041890;28;20025;-76
2023/10/07 12:07:12;;;;;;;20.60;6.18;;;16.60;99.90;;;;;;5025461;28;20038;-73
2023/10/07 12:09:38;;;;;;;19.88;5.32;;;16.70;99.90;;;;;;5023676;28;20470;-75
2023/10/07 12:12:06;;;;;;;20.83;5.65;;;16.70;99.90;;;;;;5043331;28;20025;-71
2023/10/07 12:14:33;;;;;;;23.08;6.70;;;16.70;99.90;;;;;;5042967;28;20022;-73
2023/10/07 12:16:58;;;;;;;20.73;6.00;;;16.80;99.90;;;;;;5042346;28;20105;-74
2023/10/07 12:19:26;;;;;;;24.52;6.45;;;16.80;99.90;;;;;;5024585;28;20121;-74
2023/10/07 12:21:56;;;;;;;18.27;5.90;;;16.90;99.90;;;;;;5024193;28;20036;-73
2023/10/07 12:24:21;;;;;;;24.83;6.32;;;16.90;99.90;;;;;;5023787;28;20017;-73
2023/10/07 12:26:50;;;;;;;22.77;6.25;;;16.90;99.90;;;;;;5042675;28;20500;-77
2023/10/07 12:29:20;;;;;;;17.73;5.85;;;16.90;99.90;;;;;;5041983;28;20042;-73
2023/10/07 12:31:47;;;;;;;19.27;6.13;;;16.90;99.90;;;;;;5024338;28;20505;-77
2023/10/07 12:34:15;;;;;;;21.02;6.25;;;16.90;99.90;;;;;;5023467;28;20089;-73
2023/10/07 12:36:41;;;;;;;21.70;6.05;;;16.90;99.90;;;;;;5023664;28;20038;-72
2023/10/07 12:39:10;;;;;;;23.23;5.70;;;16.90;99.90;;;;;;5023253;28;20025;-74
2023/10/07 12:41:38;;;;;;;27.55;6.80;;;16.90;99.90;;;;;;5042265;28;20026;-77
2023/10/07 12:44:09;;;;;;;21.30;5.88;;;16.90;99.90;;;;;;5023491;28;20124;-74
2023/10/07 12:46:37;;;;;;;24.30;6.03;;;16.90;99.90;;;;;;5023978;28;20044;-74
2023/10/07 12:49:09;;;;;;;21.23;5.88;;;16.90;99.90;;;;;;5041970;28;20021;-73
2023/10/07 12:51:36;;;;;;;27.33;6.65;;;16.90;99.90;;;;;;5023069;28;20028;-71
2023/10/07 12:54:03;;;;;;;16.42;5.65;;;16.90;99.90;;;;;;5041742;28;20021;-76
2023/10/07 12:56:31;;;;;;;22.65;6.25;;;16.90;99.90;;;;;;5041278;28;20057;-76
2023/10/07 12:58:56;;;;;;;21.88;6.20;;;16.80;99.90;;;;;;5022773;28;20457;-71
2023/10/07 13:01:22;;;;;;;22.20;6.65;;;16.80;99.90;;;;;;5023287;28;20085;-76
2023/10/07 13:03:48;;;;;;;21.05;6.57;;;16.80;99.90;;;;;;5041532;28;20421;-75
2023/10/07 13:06:19;;;;;;;32.30;7.05;;;16.80;99.90;;;;;;5042102;28;20025;-73
2023/10/07 13:08:45;;;;;;;25.75;7.35;;;16.80;99.90;;;;;;5040932;28;20075;-73
2023/10/07 13:11:11;;;;;;;18.52;6.72;;;16.70;99.90;;;;;;5023678;28;20033;-74
2023/10/07 13:13:46;;;;;;;23.00;5.88;;;16.70;99.90;;;;;;5024546;28;20040;-75
2023/10/07 13:16:14;;;;;;;21.77;6.70;;;16.70;99.90;;;;;;5040844;28;20064;-75
2023/10/07 13:18:41;;;;;;;26.00;5.90;;;16.70;99.90;;;;;;5039263;28;20021;-73
2023/10/07 13:21:13;;;;;;;25.42;6.63;;;16.70;99.90;;;;;;5041308;28;20056;-76
2023/10/07 13:23:40;;;;;;;24.95;7.25;;;16.70;99.90;;;;;;5040442;28;20025;-74